Perth Airport Weather

Latest weather

Perth Scone (EGPT) Weather updates coming soon.

Below are some surrounding airfields, alternative you can view our webcam below or contact Perth radio operator who can assist.

Dundee Weather - Distance 12nm Track 086'

[Source: ADDS]
METAR
EGPN 141050Z 27020KT 9999 FEW025 SCT040 16/09 Q1015 =
EGPN 140757Z 1409/1418 26017KT 9999 FEW010 SCT040 TEMPO 1409/1418 27020G30KT
TAF
EGPN 140757Z 1409/1418 26017KT 9999 FEW010 SCT040 TEMPO 1409/1418 27020G30KT =

RAF Leuchars Weather - Distance 17nm Track 103'

[Source: ADDS]
METAR
EGQL 141050Z 26024KT 9999 FEW038 16/07 Q1015 BLU =
EGQL 140736Z 1409/1418 26017KT 9999 FEW032 TEMPO 1409/1418 27020G30KT
TAF
EGQL 140736Z 1409/1418 26017KT 9999 FEW032 TEMPO 1409/1418 27020G30KT =

Edinburgh Weather - Distance 29nm Track 180'

[Source: ADDS]
METAR
EGPH 141050Z 26017G27KT 230V310 9999 SCT033 16/08 Q1017 =
EGPH 140459Z 1406/1506 24009KT 9999 SCT040 BECMG 1406/1409 26018G30KT BECMG 1418/1421 25009KT
TAF
EGPH 140459Z 1406/1506 24009KT 9999 SCT040 BECMG 1406/1409 26018G30KT BECMG 1418/1421 25009KT =

Aberdeen Weather - Distance 60nm Track 040'

[Source: ADDS]
METAR
EGPD 141050Z AUTO 25016KT 9999 BKN046 17/06 Q1014 NOSIG =
EGPD 140459Z 1406/1506 27008KT 9999 SCT030 PROB30 TEMPO 1409/1421 27015G28KT
TAF
EGPD 140459Z 1406/1506 27008KT 9999 SCT030 PROB30 TEMPO 1409/1421 27015G28KT =

Drone Tour of Perth Airport

Watch a full aerial tour of the Perth Airport runways 15/33, 09/27, 03/21. Follow our based Piper PA28-161 Warrior taking you on a tour of Perth Scone Aerodrome. The footage is captured in stunning 4K quality by the DJI Mavic Drone.
Morris Leslie Group Logo
ACS Engineering
Scotland's Charity Air Ambulance Logo
Air Service Training Logo

Get started with your first flight lesson with ACS Flight Training

Copyright 2021. ACS Aviation - Website designed by Xtensive